Time;durP1;ratioP1;P1;durP2;ratioP2;P2;SDS_P1;SDS_P2;PMS_P1;PMS_P2;Temp;Humidity;BMP_temperature;BMP_pressure;BME280_temperature;BME280_humidity;BME280_pressure;Samples;Min_cycle;Max_cycle;Signal;HPM_P1;HPM_P2
2023/11/30 00:01:45;;;;;;;52.72;18.88;;;;;;;-3.39;100.00;99825.41;7363401;19;20197;-41
2023/11/30 00:04:15;;;;;;;28.77;11.38;;;;;;;-3.60;100.00;99832.09;7387733;19;20533;-42
2023/11/30 00:06:47;;;;;;;27.38;10.60;;;;;;;-3.71;100.00;99824.53;7364576;19;20225;-41
2023/11/30 00:09:17;;;;;;;21.38;9.10;;;;;;;-3.80;100.00;99828.78;7384930;19;20821;-40
2023/11/30 00:11:47;;;;;;;22.65;9.18;;;;;;;-3.84;100.00;99832.69;7363825;19;20205;-42
2023/11/30 00:14:16;;;;;;;20.42;8.60;;;;;;;-4.03;100.00;99830.25;7387099;19;20221;-43
2023/11/30 00:16:46;;;;;;;24.10;7.93;;;;;;;-4.22;100.00;99840.38;7365218;19;20285;-42
2023/11/30 00:19:15;;;;;;;29.95;11.80;;;;;;;-4.26;100.00;99840.88;7384515;19;20139;-43
2023/11/30 00:21:48;;;;;;;19.20;8.43;;;;;;;-4.21;100.00;99839.63;7364552;19;20202;-42
2023/11/30 00:24:17;;;;;;;18.13;8.82;;;;;;;-4.17;100.00;99845.84;7385523;19;20146;-42
2023/11/30 00:26:47;;;;;;;23.90;9.35;;;;;;;-4.18;100.00;99844.03;7363727;19;20186;-41
2023/11/30 00:29:16;;;;;;;15.27;7.50;;;;;;;-4.37;100.00;99838.31;7385052;19;20146;-43
2023/11/30 00:31:46;;;;;;;15.18;7.28;;;;;;;-4.32;100.00;99840.38;7363128;19;20568;-41
2023/11/30 00:34:16;;;;;;;16.10;7.88;;;;;;;-4.23;100.00;99837.00;7385767;19;20139;-42
2023/11/30 00:36:48;;;;;;;18.58;7.65;;;;;;;-4.36;100.00;99845.13;7362369;19;20266;-44
2023/11/30 00:39:18;;;;;;;19.20;8.00;;;;;;;-4.45;100.00;99846.84;7385772;19;20256;-41
2023/11/30 00:41:47;;;;;;;17.80;7.60;;;;;;;-4.49;100.00;99838.16;7362617;19;20243;-42
2023/11/30 00:44:20;;;;;;;20.05;8.18;;;;;;;-4.33;100.00;99844.50;7384689;19;20138;-42
2023/11/30 00:46:50;;;;;;;19.92;9.13;;;;;;;-4.40;100.00;99839.69;7363160;19;20200;-41
2023/11/30 00:49:20;;;;;;;15.95;7.80;;;;;;;-4.32;100.00;99845.41;7384027;19;20219;-41
2023/11/30 00:51:52;;;;;;;18.63;8.00;;;;;;;-4.18;100.00;99841.53;7368458;19;20305;-44
2023/11/30 00:54:22;;;;;;;18.08;7.65;;;;;;;-4.29;100.00;99839.00;7390746;19;20146;-42
2023/11/30 00:56:51;;;;;;;19.95;8.02;;;;;;;-4.42;100.00;99839.56;7369235;19;20198;-42
2023/11/30 00:59:21;;;;;;;20.33;7.00;;;;;;;-4.38;100.00;99844.13;7390158;19;20626;-43
2023/11/30 01:01:51;;;;;;;20.85;9.00;;;;;;;-4.48;100.00;99847.47;7368086;19;20197;-41
2023/11/30 01:04:20;;;;;;;16.75;8.13;;;;;;;-4.48;100.00;99860.06;7390721;19;20171;-43
2023/11/30 01:06:53;;;;;;;18.15;8.57;;;;;;;-4.52;100.00;99847.94;7368243;19;20217;-41
2023/11/30 01:09:22;;;;;;;25.38;9.85;;;;;;;-4.52;100.00;99852.13;7389223;19;20221;-42
2023/11/30 01:11:52;;;;;;;17.20;7.60;;;;;;;-4.48;100.00;99860.06;7368715;19;20234;-43
2023/11/30 01:14:22;;;;;;;23.60;9.90;;;;;;;-4.51;100.00;99854.75;7390248;19;20146;-41
2023/11/30 01:16:52;;;;;;;19.35;8.27;;;;;;;-4.61;100.00;99862.25;7369863;19;20190;-42
2023/11/30 01:19:22;;;;;;;16.85;8.25;;;;;;;-4.71;100.00;99869.75;7388323;19;20218;-42
2023/11/30 01:21:54;;;;;;;24.45;9.00;;;;;;;-4.76;100.00;99865.19;7368395;19;20678;-43
2023/11/30 01:24:23;;;;;;;18.25;8.70;;;;;;;-4.73;100.00;99873.78;7389456;19;20149;-43
2023/11/30 01:26:53;;;;;;;20.00;9.55;;;;;;;-4.81;100.00;99863.91;7370167;19;20269;-42
2023/11/30 01:29:23;;;;;;;23.75;10.55;;;;;;;-4.79;100.00;99864.03;7389111;19;20153;-42
2023/11/30 01:31:53;;;;;;;21.38;9.10;;;;;;;-4.79;100.00;99861.50;7369113;19;20273;-46
2023/11/30 01:34:23;;;;;;;21.42;9.82;;;;;;;-4.75;100.00;99868.59;7389129;19;20234;-42
2023/11/30 01:36:55;;;;;;;19.15;8.18;;;;;;;-4.77;100.00;99868.44;7371096;19;20200;-43
2023/11/30 01:39:24;;;;;;;18.77;8.27;;;;;;;-4.72;100.00;99867.97;7391493;19;20566;-42
2023/11/30 01:41:54;;;;;;;33.47;12.90;;;;;;;-4.68;100.00;99865.00;7368122;19;20201;-42
2023/11/30 01:44:24;;;;;;;15.45;8.10;;;;;;;-4.64;100.00;99861.97;7388914;19;20146;-42
2023/11/30 01:46:54;;;;;;;14.70;7.32;;;;;;;-4.55;100.00;99860.28;7365893;19;20294;-43
2023/11/30 01:49:24;;;;;;;15.68;7.55;;;;;;;-4.54;100.00;99848.56;7389889;19;20821;-42
2023/11/30 01:51:56;;;;;;;15.60;7.60;;;;;;;-4.51;100.00;99849.72;7367792;19;20202;-42
2023/11/30 01:54:26;;;;;;;21.02;8.65;;;;;;;-4.46;100.00;99847.63;7388527;19;20138;-42
2023/11/30 01:56:56;;;;;;;19.30;8.13;;;;;;;-4.36;100.00;99844.25;7367911;19;20333;-41
2023/11/30 01:59:25;;;;;;;21.60;8.63;;;;;;;-4.36;100.00;99839.22;7388405;19;20226;-40
2023/11/30 02:01:55;;;;;;;24.35;9.20;;;;;;;-4.26;100.00;99841.75;7368338;19;20261;-43
2023/11/30 02:04:25;;;;;;;17.95;7.45;;;;;;;-4.24;100.00;99839.38;7388339;19;20135;-42
2023/11/30 02:06:57;;;;;;;19.42;8.45;;;;;;;-4.20;100.00;99841.41;7369586;19;20213;-43
2023/11/30 02:09:27;;;;;;;20.77;9.18;;;;;;;-4.17;100.00;99841.66;7389334;19;20176;-43
2023/11/30 02:11:56;;;;;;;15.30;7.35;;;;;;;-4.12;100.00;99832.88;7368224;19;20221;-44
2023/11/30 02:14:26;;;;;;;17.35;8.25;;;;;;;-4.18;100.00;99834.88;7388589;19;20143;-44
2023/11/30 02:16:55;;;;;;;15.13;7.15;;;;;;;-4.09;100.00;99830.59;7369021;19;20223;-44
2023/11/30 02:19:25;;;;;;;17.92;8.73;;;;;;;-4.10;100.00;99822.94;7389269;19;20149;-42
2023/11/30 02:21:57;;;;;;;15.68;7.95;;;;;;;-4.12;100.00;99821.91;7367662;19;20202;-44
2023/11/30 02:24:27;;;;;;;17.92;7.90;;;;;;;-3.97;100.00;99823.22;7387959;19;20153;-43
2023/11/30 02:26:56;;;;;;;22.90;7.60;;;;;;;-3.95;100.00;99824.22;7366960;19;20217;-43
2023/11/30 02:29:26;;;;;;;20.65;8.38;;;;;;;-3.92;100.00;99816.03;7387747;19;20170;-42
2023/11/30 02:31:55;;;;;;;19.75;8.55;;;;;;;-3.95;100.00;99821.69;7367551;19;20194;-42
2023/11/30 02:34:25;;;;;;;17.33;7.82;;;;;;;-3.90;100.00;99816.16;7387503;19;20163;-43
2023/11/30 02:36:57;;;;;;;15.95;7.80;;;;;;;-3.96;100.00;99812.38;7367015;19;20553;-42
2023/11/30 02:39:27;;;;;;;18.38;8.27;;;;;;;-3.98;100.00;99818.03;7386869;19;20143;-44
2023/11/30 02:41:56;;;;;;;22.25;8.05;;;;;;;-4.11;100.00;99806.91;7367241;19;20277;-43
2023/11/30 02:44:26;;;;;;;19.85;7.85;;;;;;;-4.00;100.00;99815.38;7381636;19;20163;-43
2023/11/30 02:46:55;;;;;;;20.27;9.27;;;;;;;-4.04;100.00;99812.47;7364691;19;20186;-43
2023/11/30 02:49:25;;;;;;;16.77;8.05;;;;;;;-4.01;100.00;99811.09;7386920;19;20215;-44
2023/11/30 02:51:57;;;;;;;17.08;8.75;;;;;;;-3.93;100.00;99807.56;7367274;19;20194;-43
2023/11/30 02:54:27;;;;;;;18.70;8.73;;;;;;;-3.90;100.00;99806.09;7390078;19;20153;-43
2023/11/30 02:56:57;;;;;;;23.90;9.13;;;;;;;-3.88;100.00;99807.97;7365506;19;20205;-43
2023/11/30 02:59:26;;;;;;;14.52;7.63;;;;;;;-3.84;100.00;99811.63;7387689;19;20143;-42
2023/11/30 03:01:56;;;;;;;17.63;8.27;;;;;;;-3.87;100.00;99813.88;7370914;19;20205;-44
2023/11/30 03:04:26;;;;;;;21.42;9.10;;;;;;;-3.82;100.00;99816.06;7394724;19;20515;-42
2023/11/30 03:06:58;;;;;;;16.13;8.77;;;;;;;-3.78;100.00;99812.16;7373393;19;20694;-43
2023/11/30 03:09:27;;;;;;;20.25;9.32;;;;;;;-3.83;100.00;99818.44;7396825;19;20139;-42
2023/11/30 03:11:57;;;;;;;22.10;9.32;;;;;;;-3.87;100.00;99821.44;7371539;19;20206;-43
2023/11/30 03:14:27;;;;;;;20.35;9.50;;;;;;;-3.89;100.00;99822.97;7394208;19;20139;-42
2023/11/30 03:16:56;;;;;;;18.27;8.45;;;;;;;-3.98;100.00;99816.41;7372174;19;20194;-42
2023/11/30 03:19:26;;;;;;;20.30;9.65;;;;;;;-3.97;100.00;99813.13;7394649;19;20611;-43
2023/11/30 03:21:58;;;;;;;19.98;8.75;;;;;;;-3.87;100.00;99812.25;7371884;19;20214;-42
2023/11/30 03:24:28;;;;;;;17.70;9.20;;;;;;;-3.73;100.00;99805.88;7395312;19;20162;-43
2023/11/30 03:26:57;;;;;;;21.95;9.07;;;;;;;-3.76;100.00;99810.63;7372467;19;20194;-46
2023/11/30 03:29:27;;;;;;;26.35;10.20;;;;;;;-3.84;100.00;99802.41;7396331;19;20145;-42
2023/11/30 03:31:56;;;;;;;17.25;7.88;;;;;;;-3.78;100.00;99798.66;7371432;19;20202;-43
2023/11/30 03:34:26;;;;;;;19.23;8.65;;;;;;;-3.73;100.00;99798.31;7394977;19;20512;-42
2023/11/30 03:36:58;;;;;;;19.48;8.40;;;;;;;-3.61;100.00;99795.00;7371455;19;20202;-45
2023/11/30 03:39:28;;;;;;;19.92;9.52;;;;;;;-3.67;100.00;99793.78;7394411;19;20703;-43
2023/11/30 03:41:58;;;;;;;21.98;9.88;;;;;;;-3.76;100.00;99790.47;7371284;19;20210;-43
2023/11/30 03:44:27;;;;;;;17.80;8.85;;;;;;;-3.68;100.00;99794.50;7394746;19;20214;-43
2023/11/30 03:46:57;;;;;;;20.25;9.27;;;;;;;-3.62;100.00;99794.13;7368460;19;20198;-42
2023/11/30 03:49:26;;;;;;;21.10;8.77;;;;;;;-3.61;100.00;99790.84;7394690;19;20210;-43
2023/11/30 03:51:58;;;;;;;20.65;9.98;;;;;;;-3.70;100.00;99796.03;7371495;19;20621;-44
2023/11/30 03:54:28;;;;;;;19.17;9.35;;;;;;;-3.69;100.00;99794.41;7396630;19;20145;-42
2023/11/30 03:56:58;;;;;;;21.58;10.27;;;;;;;-3.71;100.00;99796.78;7371733;19;20612;-43
2023/11/30 03:59:27;;;;;;;18.05;9.30;;;;;;;-3.76;100.00;99797.16;7393538;19;20162;-43
2023/11/30 04:01:57;;;;;;;21.70;9.68;;;;;;;-3.83;100.00;99798.28;7371004;19;20215;-42
2023/11/30 04:04:26;;;;;;;25.60;10.05;;;;;;;-3.75;100.00;99797.28;7394481;19;20234;-44
2023/11/30 04:06:59;;;;;;;24.92;10.90;;;;;;;-3.70;100.00;99811.16;7370493;19;20194;-44
2023/11/30 04:09:28;;;;;;;18.58;9.00;;;;;;;-3.80;100.00;99806.97;7393885;19;20153;-45
2023/11/30 04:11:58;;;;;;;17.88;8.88;;;;;;;-3.77;100.00;99805.47;7369930;19;20214;-44
2023/11/30 04:14:28;;;;;;;16.85;8.20;;;;;;;-3.79;100.00;99807.88;7394079;19;20150;-42
2023/11/30 04:16:57;;;;;;;22.33;10.32;;;;;;;-3.86;100.00;99803.03;7370283;19;20691;-43
2023/11/30 04:19:32;;;;;;;20.58;9.73;;;;;;;-3.93;100.00;99800.00;7391179;19;20142;-43
2023/11/30 04:22:04;;;;;;;14.75;8.05;;;;;;;-3.87;100.00;99792.09;7370467;19;20285;-44
2023/11/30 04:24:34;;;;;;;19.67;9.18;;;;;;;-3.81;100.00;99791.72;7390929;19;20163;-43
2023/11/30 04:27:04;;;;;;;19.10;9.38;;;;;;;-3.83;100.00;99798.28;7368659;19;20544;-42
2023/11/30 04:29:34;;;;;;;18.45;9.18;;;;;;;-3.74;100.00;99798.16;7392655;19;20166;-42
2023/11/30 04:32:04;;;;;;;19.60;8.68;;;;;;;-3.81;100.00;99791.72;7369838;19;20202;-42
2023/11/30 04:34:34;;;;;;;21.60;9.13;;;;;;;-3.72;100.00;99786.56;7392095;19;20219;-43
2023/11/30 04:37:06;;;;;;;20.17;8.70;;;;;;;-3.76;100.00;99787.94;7370000;19;20202;-42
2023/11/30 04:39:37;;;;;;;26.08;9.55;;;;;;;-3.81;100.00;99789.19;7390771;19;20554;-44
2023/11/30 04:42:07;;;;;;;15.63;8.20;;;;;;;-3.85;100.00;99784.66;7369050;19;20225;-42
2023/11/30 04:44:37;;;;;;;16.08;8.40;;;;;;;-3.81;100.00;99784.16;7391805;19;20138;-43
2023/11/30 04:47:08;;;;;;;19.63;8.55;;;;;;;-3.81;100.00;99781.63;7369043;19;20198;-43
2023/11/30 04:49:37;;;;;;;25.48;9.93;;;;;;;-3.84;100.00;99779.72;7392756;19;20153;-43
2023/11/30 04:52:10;;;;;;;20.95;8.88;;;;;;;-3.93;100.00;99777.31;7368967;19;20206;-42
2023/11/30 04:54:39;;;;;;;15.70;7.80;;;;;;;-3.97;100.00;99769.38;7392662;19;20168;-43
2023/11/30 04:57:10;;;;;;;21.90;9.10;;;;;;;-3.95;100.00;99763.72;7368873;19;20555;-44
2023/11/30 04:59:40;;;;;;;18.42;8.68;;;;;;;-3.88;100.00;99769.28;7390434;19;20151;-44
2023/11/30 05:02:10;;;;;;;20.23;8.25;;;;;;;-3.98;100.00;99773.56;7368563;19;20198;-43
2023/11/30 05:04:40;;;;;;;18.27;8.02;;;;;;;-4.17;100.00;99780.31;7391311;19;20218;-45
2023/11/30 05:07:12;;;;;;;17.02;8.98;;;;;;;-4.31;100.00;99785.06;7370380;19;20198;-45
2023/11/30 05:09:42;;;;;;;20.35;9.20;;;;;;;-4.35;100.00;99785.56;7390570;19;20478;-44
2023/11/30 05:12:11;;;;;;;22.95;9.60;;;;;;;-4.32;100.00;99790.84;7369343;19;20217;-44
2023/11/30 05:14:41;;;;;;;17.42;8.85;;;;;;;-4.33;100.00;99799.16;7391010;19;20206;-45
2023/11/30 05:17:10;;;;;;;16.35;9.23;;;;;;;-4.43;100.00;99799.09;7368801;19;20190;-43
2023/11/30 05:19:40;;;;;;;20.67;8.70;;;;;;;-4.45;100.00;99805.66;7389788;19;20573;-45
2023/11/30 05:22:12;;;;;;;19.50;9.13;;;;;;;-4.52;100.00;99797.56;7368363;19;20251;-43
2023/11/30 05:24:42;;;;;;;21.90;8.00;;;;;;;-4.57;100.00;99802.97;7390323;19;20163;-43
2023/11/30 05:27:11;;;;;;;23.13;9.52;;;;;;;-4.64;100.00;99806.59;7368447;19;20286;-44
2023/11/30 05:29:41;;;;;;;20.10;9.07;;;;;;;-4.62;100.00;99820.19;7389972;19;20166;-43
2023/11/30 05:32:10;;;;;;;22.63;10.50;;;;;;;-4.67;100.00;99813.88;7368146;19;20202;-46
2023/11/30 05:34:40;;;;;;;17.38;9.23;;;;;;;-4.63;100.00;99814.28;7391906;19;20617;-43
2023/11/30 05:37:12;;;;;;;19.48;9.35;;;;;;;-4.79;100.00;99813.69;7370587;19;20204;-46
2023/11/30 05:39:42;;;;;;;22.42;10.02;;;;;;;-4.95;100.00;99816.47;7396976;19;20210;-42
2023/11/30 05:42:11;;;;;;;20.38;9.48;;;;;;;-5.08;100.00;99817.91;7374528;19;20206;-44
2023/11/30 05:44:41;;;;;;;25.13;9.68;;;;;;;-5.02;100.00;99827.66;7399257;19;20738;-44
2023/11/30 05:47:11;;;;;;;23.80;9.35;;;;;;;-5.03;100.00;99816.69;7373002;19;20195;-43
2023/11/30 05:49:40;;;;;;;26.73;9.52;;;;;;;-5.05;100.00;99825.75;7398942;19;20502;-45
2023/11/30 05:52:13;;;;;;;23.05;10.00;;;;;;;-5.20;100.00;99820.22;7373872;19;20210;-42
2023/11/30 05:54:42;;;;;;;21.63;10.05;;;;;;;-5.23;100.00;99821.59;7397466;19;20159;-44
2023/11/30 05:57:12;;;;;;;24.42;9.70;;;;;;;-5.21;100.00;99827.63;7374612;19;20219;-44
2023/11/30 05:59:42;;;;;;;27.58;11.30;;;;;;;-5.23;100.00;99827.50;7395985;19;20612;-43
2023/11/30 06:02:12;;;;;;;18.33;8.73;;;;;;;-5.30;100.00;99828.59;7374336;19;20247;-45
2023/11/30 06:04:51;;;;;;;24.58;9.88;;;;;;;-5.33;100.00;99827.44;7396007;19;20162;-43
2023/11/30 06:07:24;;;;;;;22.80;9.60;;;;;;;-5.25;100.00;99828.09;7374257;19;20198;-43
2023/11/30 06:09:54;;;;;;;20.85;9.13;;;;;;;-5.23;100.00;99831.66;7396153;19;20500;-44
2023/11/30 06:12:24;;;;;;;22.50;10.15;;;;;;;-5.41;100.00;99841.81;7374221;19;20210;-42
2023/11/30 06:14:53;;;;;;;21.88;9.00;;;;;;;-5.52;100.00;99840.84;7396598;19;20202;-42
2023/11/30 06:17:23;;;;;;;25.75;10.40;;;;;;;-5.45;100.00;99839.75;7373523;19;20190;-45
2023/11/30 06:19:52;;;;;;;26.65;10.50;;;;;;;-5.56;100.00;99842.19;7396895;19;20493;-43
2023/11/30 06:22:24;;;;;;;23.23;10.00;;;;;;;-5.49;100.00;99837.72;7373779;19;20282;-46
2023/11/30 06:24:54;;;;;;;29.10;11.23;;;;;;;-5.52;100.00;99847.50;7396323;19;20159;-43
2023/11/30 06:27:23;;;;;;;26.85;10.63;;;;;;;-5.48;100.00;99854.59;7373985;19;20202;-43
2023/11/30 06:29:53;;;;;;;19.98;9.55;;;;;;;-5.66;100.00;99848.78;7395432;19;20135;-44
2023/11/30 06:32:23;;;;;;;22.05;9.93;;;;;;;-5.65;100.00;99846.38;7373782;19;20202;-48
2023/11/30 06:34:53;;;;;;;19.27;9.07;;;;;;;-5.81;100.00;99850.75;7395032;19;20717;-44
2023/11/30 06:37:25;;;;;;;24.63;10.10;;;;;;;-5.83;100.00;99859.00;7373242;19;20209;-43
2023/11/30 06:39:54;;;;;;;22.77;9.68;;;;;;;-5.91;100.00;99864.97;7395294;19;20151;-43
2023/11/30 06:42:24;;;;;;;26.27;10.43;;;;;;;-5.93;100.00;99868.97;7373353;19;20248;-43
2023/11/30 06:44:53;;;;;;;25.20;10.55;;;;;;;-6.02;100.00;99869.00;7389967;19;20724;-43
2023/11/30 06:47:23;;;;;;;28.25;11.07;;;;;;;-6.02;100.00;99873.16;7371503;19;20200;-45
2023/11/30 06:49:53;;;;;;;20.15;9.27;;;;;;;-6.10;100.00;99870.81;7393012;19;20151;-45
2023/11/30 06:52:25;;;;;;;19.55;8.75;;;;;;;-6.06;100.00;99877.00;7373415;19;20274;-44
2023/11/30 06:54:54;;;;;;;23.77;10.30;;;;;;;-6.05;100.00;99876.28;7395543;19;20634;-44
2023/11/30 06:57:24;;;;;;;25.85;10.13;;;;;;;-6.11;100.00;99881.63;7372832;19;20208;-45
2023/11/30 06:59:53;;;;;;;18.73;8.75;;;;;;;-6.11;100.00;99885.75;7394952;19;20239;-44
2023/11/30 07:02:24;;;;;;;16.33;8.77;;;;;;;-6.00;100.00;99881.72;7373142;19;20202;-43
2023/11/30 07:04:54;;;;;;;24.58;10.43;;;;;;;-5.93;100.00;99883.16;7395169;19;20139;-43
2023/11/30 07:07:26;;;;;;;22.25;9.45;;;;;;;-6.02;100.00;99879.06;7372478;19;21056;-43
2023/11/30 07:10:05;;;;;;;17.55;8.60;;;;;;;-6.17;100.00;99886.06;7396505;19;20530;-43
2023/11/30 07:12:34;;;;;;;22.17;9.45;;;;;;;-6.12;100.00;99887.38;7370807;19;20202;-42
2023/11/30 07:15:04;;;;;;;22.70;9.85;;;;;;;-5.85;100.00;99882.25;7395437;19;20154;-43
2023/11/30 07:17:34;;;;;;;22.33;9.48;;;;;;;-5.71;100.00;99881.00;7371357;19;20194;-42
2023/11/30 07:20:04;;;;;;;24.13;10.10;;;;;;;-5.73;100.00;99878.38;7394813;19;20496;-42
2023/11/30 07:22:36;;;;;;;26.30;9.75;;;;;;;-5.67;100.00;99882.16;7370398;19;20198;-43
2023/11/30 07:25:07;;;;;;;21.73;9.15;;;;;;;-5.64;100.00;99878.31;7395340;19;20166;-46
2023/11/30 07:27:36;;;;;;;21.13;10.60;;;;;;;-5.67;100.00;99883.06;7370075;19;20192;-43
2023/11/30 07:30:11;;;;;;;26.63;11.30;;;;;;;-5.67;100.00;99889.72;7387243;19;20496;-43
2023/11/30 07:32:42;;;;;;;22.35;10.10;;;;;;;-5.61;100.00;99897.81;7364752;19;20257;-46
2023/11/30 07:35:12;;;;;;;26.15;10.52;;;;;;;-5.52;100.00;99901.19;7385967;19;20157;-43
2023/11/30 07:37:44;;;;;;;24.30;10.75;;;;;;;-5.54;100.00;99899.28;7366236;19;20602;-43
2023/11/30 07:40:14;;;;;;;22.98;10.20;;;;;;;-5.46;100.00;99898.34;7385743;19;20143;-42
2023/11/30 07:42:45;;;;;;;20.20;9.45;;;;;;;-5.31;100.00;99904.78;7364696;19;20679;-41
2023/11/30 07:45:14;;;;;;;24.85;10.35;;;;;;;-5.32;100.00;99892.97;7386035;19;20520;-41
2023/11/30 07:47:44;;;;;;;24.55;10.35;;;;;;;-5.35;100.00;99896.81;7361903;19;20604;-41
2023/11/30 07:50:16;;;;;;;30.95;13.75;;;;;;;-5.25;100.00;99896.00;7385644;19;20789;-46
2023/11/30 07:52:48;;;;;;;29.10;11.10;;;;;;;-5.15;100.00;99902.03;7364333;19;20271;-43
2023/11/30 07:55:18;;;;;;;26.88;10.57;;;;;;;-5.21;100.00;99898.06;7386945;19;20206;-45
2023/11/30 07:57:47;;;;;;;26.70;10.43;;;;;;;-5.32;100.00;99895.47;7363077;19;20190;-44
2023/11/30 08:00:18;;;;;;;23.17;10.45;;;;;;;-5.17;100.00;99911.06;7383936;19;20142;-45
2023/11/30 08:02:47;;;;;;;25.50;11.55;;;;;;;-5.08;100.00;99908.50;7362850;19;20196;-46
2023/11/30 08:05:19;;;;;;;25.35;10.95;;;;;;;-5.09;100.00;99901.69;7385527;19;20533;-43
2023/11/30 08:07:51;;;;;;;22.27;11.15;;;;;;;-5.05;100.00;99911.31;7362507;19;20183;-43
2023/11/30 08:10:20;;;;;;;23.65;10.18;;;;;;;-5.08;100.00;99905.09;7384649;19;20227;-43
2023/11/30 08:12:50;;;;;;;29.17;11.60;;;;;;;-5.06;100.00;99916.19;7362433;19;20194;-45
2023/11/30 08:15:20;;;;;;;23.85;9.55;;;;;;;-4.88;100.00;99916.94;7384973;19;20138;-43
2023/11/30 08:17:50;;;;;;;24.10;9.30;;;;;;;-4.79;100.00;99917.78;7363328;19;20563;-45
2023/11/30 08:20:20;;;;;;;24.08;10.48;;;;;;;-4.75;100.00;99923.97;7385045;19;20139;-44
2023/11/30 08:22:53;;;;;;;20.13;9.23;;;;;;;-4.57;100.00;99921.34;7362590;19;20288;-44
2023/11/30 08:25:22;;;;;;;28.95;11.60;;;;;;;-4.51;100.00;99920.22;7384079;19;21839;-44
2023/11/30 08:27:53;;;;;;;28.98;11.35;;;;;;;-4.58;100.00;99922.94;7361367;19;20187;-44
2023/11/30 08:30:23;;;;;;;22.30;10.40;;;;;;;-4.57;100.00;99927.22;7380867;19;20147;-43
2023/11/30 08:32:53;;;;;;;24.48;10.68;;;;;;;-4.64;100.00;99927.44;7360273;19;20194;-44
2023/11/30 08:35:23;;;;;;;24.02;10.50;;;;;;;-4.57;100.00;99924.72;7384858;19;20139;-45
2023/11/30 08:37:55;;;;;;;26.08;11.77;;;;;;;-4.48;100.00;99925.53;7365542;19;20570;-44
2023/11/30 08:40:25;;;;;;;25.35;10.73;;;;;;;-4.44;100.00;99930.84;7386582;19;20151;-45
2023/11/30 08:42:54;;;;;;;26.73;11.77;;;;;;;-4.36;100.00;99923.22;7367326;19;20205;-44
2023/11/30 08:45:27;;;;;;;24.83;10.60;;;;;;;-4.41;100.00;99926.09;7395046;19;20171;-46
2023/11/30 08:47:56;;;;;;;27.45;11.23;;;;;;;-4.32;100.00;99924.34;7366155;19;20202;-45
2023/11/30 08:50:26;;;;;;;27.60;11.80;;;;;;;-4.18;100.00;99925.56;7392505;19;20576;-43
2023/11/30 08:52:58;;;;;;;27.00;11.90;;;;;;;-4.18;100.00;99930.63;7369243;19;20201;-43
2023/11/30 08:55:28;;;;;;;24.27;11.35;;;;;;;-4.12;100.00;99930.25;7393759;19;20150;-44
2023/11/30 08:57:57;;;;;;;23.42;11.35;;;;;;;-4.08;100.00;99930.66;7368261;19;20200;-45
2023/11/30 09:00:27;;;;;;;22.70;10.73;;;;;;;-3.93;100.00;99932.75;7392003;19;20615;-44
2023/11/30 09:02:57;;;;;;;40.10;17.63;;;;;;;-3.68;100.00;99935.72;7368320;19;20190;-43
2023/11/30 09:05:26;;;;;;;44.45;17.50;;;;;;;-3.60;100.00;99933.00;7393011;19;20142;-44
2023/11/30 09:07:58;;;;;;;28.38;12.27;;;;;;;-3.49;100.00;99932.22;7367302;19;20453;-44
2023/11/30 09:10:28;;;;;;;31.77;11.77;;;;;;;-3.59;100.00;99935.63;7391983;19;20703;-44
2023/11/30 09:12:58;;;;;;;32.95;12.75;;;;;;;-3.48;100.00;99923.03;7374116;19;20198;-44
2023/11/30 09:15:27;;;;;;;29.25;12.73;;;;;;;-3.33;100.00;99919.28;7399003;19;20603;-43
2023/11/30 09:17:58;;;;;;;45.42;17.55;;;;;;;-3.28;100.00;99914.63;7375209;19;20211;-44
2023/11/30 09:20:28;;;;;;;37.05;15.02;;;;;;;-3.41;100.00;99921.16;7398540;19;20518;-44
2023/11/30 09:23:00;;;;;;;52.70;19.10;;;;;;;-3.41;100.00;99915.22;7375026;19;20240;-43
2023/11/30 09:25:30;;;;;;;42.72;15.63;;;;;;;-3.04;100.00;99912.34;7399526;19;20139;-44
2023/11/30 09:27:59;;;;;;;40.08;16.38;;;;;;;-2.81;100.00;99901.63;7374273;19;20661;-44
2023/11/30 09:30:29;;;;;;;36.92;16.60;;;;;;;-2.86;100.00;99901.22;7397972;19;20159;-45
2023/11/30 09:32:59;;;;;;;49.42;18.60;;;;;;;-2.85;100.00;99892.94;7375034;19;20197;-46
2023/11/30 09:35:28;;;;;;;29.58;13.82;;;;;;;-2.76;100.00;99914.63;7399158;19;20139;-44
2023/11/30 09:38:01;;;;;;;29.95;13.98;;;;;;;-2.70;100.00;99899.97;7374729;19;20198;-43
2023/11/30 09:40:30;;;;;;;33.97;14.88;;;;;;;-2.81;100.00;99905.78;7400823;19;20169;-44
2023/11/30 09:43:00;;;;;;;35.22;14.70;;;;;;;-2.88;100.00;99909.44;7374391;19;20194;-42
2023/11/30 09:45:29;;;;;;;30.27;13.27;;;;;;;-2.84;100.00;99916.53;7398301;19;20139;-44
2023/11/30 09:47:59;;;;;;;29.00;12.45;;;;;;;-2.80;100.00;99920.19;7371608;19;20575;-45
2023/11/30 09:50:29;;;;;;;31.88;13.73;;;;;;;-2.77;100.00;99913.72;7397943;19;20146;-44
2023/11/30 09:53:01;;;;;;;28.75;12.55;;;;;;;-2.73;100.00;99902.22;7374015;19;20186;-43
2023/11/30 09:55:31;;;;;;;35.72;14.63;;;;;;;-2.78;100.00;99901.88;7398644;19;20151;-46
2023/11/30 09:58:00;;;;;;;38.88;15.15;;;;;;;-2.71;100.00;99900.75;7373485;19;20202;-45
2023/11/30 10:00:30;;;;;;;37.30;14.60;;;;;;;-2.62;100.00;99904.00;7395756;19;20135;-45
2023/11/30 10:03:00;;;;;;;34.70;13.02;;;;;;;-2.61;100.00;99903.22;7365918;19;20573;-43
2023/11/30 10:05:29;;;;;;;32.28;13.88;;;;;;;-2.58;100.00;99906.00;7389412;19;20150;-45
2023/11/30 10:08:02;;;;;;;33.15;14.88;;;;;;;-2.58;100.00;99900.97;7361175;19;20186;-45
2023/11/30 10:10:32;;;;;;;33.00;14.10;;;;;;;-2.66;100.00;99898.56;7390142;19;20897;-45
2023/11/30 10:13:02;;;;;;;37.88;13.70;;;;;;;-2.61;100.00;99890.59;7365361;19;20198;-43
2023/11/30 10:15:32;;;;;;;34.05;14.25;;;;;;;-2.57;100.00;99889.19;7390281;19;20147;-44
2023/11/30 10:18:02;;;;;;;31.33;13.65;;;;;;;-2.63;100.00;99882.03;7367430;19;20199;-44
2023/11/30 10:20:32;;;;;;;29.13;13.13;;;;;;;-2.65;100.00;99881.03;7388471;19;20214;-43
2023/11/30 10:23:12;;;;;;;29.05;13.13;;;;;;;-2.65;100.00;99880.13;7363845;19;20196;-45
2023/11/30 10:25:43;;;;;;;29.08;12.05;;;;;;;-2.65;100.00;99878.50;7389465;19;20622;-47
2023/11/30 10:28:13;;;;;;;27.13;12.60;;;;;;;-2.62;100.00;99881.25;7366769;19;20201;-45
2023/11/30 10:30:43;;;;;;;32.63;13.35;;;;;;;-2.60;100.00;99882.25;7389680;19;20171;-44
2023/11/30 10:33:15;;;;;;;30.90;12.95;;;;;;;-2.71;100.00;99878.00;7366937;19;20198;-42
2023/11/30 10:35:46;;;;;;;32.78;14.32;;;;;;;-2.47;100.00;99863.03;7389672;19;20507;-43
2023/11/30 10:38:22;;;;;;;37.75;14.88;;;;;;;-2.49;100.00;99862.03;7367071;19;20257;-46
2023/11/30 10:40:54;;;;;;;37.15;13.23;;;;;;;-2.43;100.00;99861.66;7388570;19;20186;-46
2023/11/30 10:43:25;;;;;;;31.90;13.50;;;;;;;-2.48;100.00;99866.31;7367373;19;20644;-44
2023/11/30 10:45:55;;;;;;;33.13;13.93;;;;;;;-2.48;100.00;99864.69;7391740;19;20149;-43
2023/11/30 10:48:27;;;;;;;36.53;15.10;;;;;;;-2.45;100.00;99856.47;7364088;19;20222;-44
2023/11/30 10:50:57;;;;;;;37.30;16.73;;;;;;;-2.48;100.00;99858.72;7388862;19;20178;-44
2023/11/30 10:53:41;;;;;;;29.98;11.60;;;;;;;-2.55;100.00;99853.97;7366480;19;20182;-44
2023/11/30 10:56:12;;;;;;;36.03;12.80;;;;;;;-2.54;100.00;99851.56;7388752;19;20142;-44
2023/11/30 10:58:44;;;;;;;29.73;13.07;;;;;;;-2.49;100.00;99844.34;7367833;19;20246;-45
2023/11/30 11:01:14;;;;;;;28.48;12.77;;;;;;;-2.41;100.00;99850.88;7388194;19;20556;-41
2023/11/30 11:03:48;;;;;;;26.00;11.68;;;;;;;-2.38;100.00;99848.59;7389373;19;20142;-43
2023/11/30 11:06:18;;;;;;;33.95;12.80;;;;;;;-2.44;100.00;99855.69;7366711;19;20143;-44
2023/11/30 11:09:05;;;;;;;26.77;12.07;;;;;;;-2.61;100.00;99854.38;7386634;19;20145;-45
2023/11/30 11:11:35;;;;;;;26.02;11.02;;;;;;;-2.65;100.00;99847.28;7365791;19;20203;-44
2023/11/30 11:14:05;;;;;;;25.73;11.63;;;;;;;-2.59;100.00;99843.63;7390159;19;20507;-41
2023/11/30 11:16:36;;;;;;;24.98;8.48;;;;;;;-2.76;100.00;99859.94;7367211;19;20290;-42
2023/11/30 11:19:07;;;;;;;20.98;9.43;;;;;;;-2.70;100.00;99849.47;7389284;19;20146;-42
2023/11/30 11:21:41;;;;;;;25.55;11.88;;;;;;;-2.38;100.00;99835.97;7365070;19;20213;-44
2023/11/30 11:24:13;;;;;;;25.05;10.20;;;;;;;-2.24;100.00;99844.66;7386966;19;20146;-41
2023/11/30 11:26:44;;;;;;;22.85;10.10;;;;;;;-2.18;100.00;99846.75;7365633;19;20728;-42
2023/11/30 11:29:15;;;;;;;26.15;11.90;;;;;;;-2.20;100.00;99833.13;7387865;19;20222;-43